Time;durP1;ratioP1;P1;durP2;ratioP2;P2;SDS_P1;SDS_P2;PMS_P1;PMS_P2;Temp;Humidity;BMP_temperature;BMP_pressure;BME280_temperature;BME280_humidity;BME280_pressure;Samples;Min_cycle;Max_cycle;Signal;HPM_P1;HPM_P2
2022/10/03 00:02:33;;;;;;;7.80;3.60;;;;;;;8.23;92.26;98993.88;445871;1275;142909;-62
2022/10/03 00:12:58;;;;;;;7.10;3.20;;;;;;;8.33;91.68;99000.89;438148;1274;142584;-63
2022/10/03 00:23:11;;;;;;;5.90;3.50;;;;;;;8.26;91.12;98997.35;439865;1275;142404;-63
2022/10/03 00:33:27;;;;;;;4.80;3.00;;;;;;;8.32;90.83;98996.29;446835;1273;142310;-62
2022/10/03 00:44:00;;;;;;;4.00;3.00;;;;;;;8.38;90.60;98994.30;446825;1274;187294;-64
2022/10/03 00:54:25;;;;;;;5.30;3.70;;;;;;;8.36;90.32;98988.69;446222;1274;142096;-61
2022/10/03 01:04:44;;;;;;;5.70;3.40;;;;;;;8.36;90.02;98983.79;446454;1275;142619;-62
2022/10/03 01:15:02;;;;;;;5.20;1.80;;;;;;;8.27;89.75;98965.54;443341;1275;144000;-62
2022/10/03 01:25:18;;;;;;;4.20;2.70;;;;;;;8.30;89.98;98958.89;446567;1275;184968;-61
2022/10/03 01:35:33;;;;;;;4.70;2.30;;;;;;;8.41;90.18;98958.34;446053;1274;142964;-62
2022/10/03 01:45:48;;;;;;;6.30;2.90;;;;;;;8.47;90.62;98961.65;446807;1272;141809;-61
2022/10/03 01:56:07;;;;;;;3.20;2.20;;;;;;;8.49;90.31;98950.88;446254;1275;141855;-62
2022/10/03 02:06:22;;;;;;;7.70;2.60;;;;;;;8.51;90.82;98950.73;446675;1274;143434;-62
2022/10/03 02:16:37;;;;;;;6.20;2.50;;;;;;;8.57;90.99;98939.06;439846;1275;142763;-61
2022/10/03 02:27:07;;;;;;;4.80;2.10;;;;;;;8.62;91.43;98937.14;445743;1275;142263;-61
2022/10/03 02:37:49;;;;;;;4.80;2.70;;;;;;;8.68;91.58;98946.90;446567;1275;143041;-61
2022/10/03 02:48:14;;;;;;;3.80;2.90;;;;;;;8.75;91.81;98952.02;446039;1273;143947;-62
2022/10/03 02:59:05;;;;;;;5.20;3.00;;;;;;;8.83;91.98;98949.21;446592;1275;142875;-63
2022/10/03 03:09:53;;;;;;;4.30;3.30;;;;;;;8.90;92.14;98940.88;446523;1275;145179;-62
2022/10/03 03:20:18;;;;;;;6.50;2.90;;;;;;;8.95;92.15;98936.36;436643;1274;141894;-61
2022/10/03 03:30:30;;;;;;;4.80;2.50;;;;;;;8.98;92.07;98928.83;435240;1274;141572;-59
2022/10/03 03:40:45;;;;;;;4.10;3.30;;;;;;;9.01;91.94;98929.52;433167;1274;197332;-62
2022/10/03 03:51:02;;;;;;;3.50;2.60;;;;;;;8.99;92.27;98928.25;430712;1274;143780;-65
2022/10/03 04:01:38;;;;;;;4.50;2.60;;;;;;;8.96;92.69;98926.86;434617;1275;142867;-63
2022/10/03 04:12:04;;;;;;;4.10;2.60;;;;;;;8.96;92.62;98934.34;438328;1275;144028;-63
2022/10/03 04:22:21;;;;;;;7.10;2.60;;;;;;;8.96;92.62;98928.59;429340;1273;142640;-61
2022/10/03 04:32:41;;;;;;;7.50;2.20;;;;;;;8.95;92.75;98927.63;429028;1276;142721;-62
2022/10/03 04:42:59;;;;;;;4.90;2.20;;;;;;;8.94;92.84;98931.71;437119;1275;143403;-62
2022/10/03 04:53:23;;;;;;;6.20;2.70;;;;;;;8.91;93.02;98926.11;429322;1275;142466;-62
2022/10/03 05:03:42;;;;;;;8.00;3.30;;;;;;;8.89;92.92;98930.33;430110;1274;143078;-61
2022/10/03 05:14:00;;;;;;;8.70;2.90;;;;;;;8.87;93.38;98925.73;429617;1275;142628;-60
2022/10/03 05:24:19;;;;;;;5.40;2.60;;;;;;;8.90;93.23;98930.44;438751;1274;142867;-62
2022/10/03 05:34:40;;;;;;;7.70;2.10;;;;;;;8.94;92.86;98923.70;443703;1275;142731;-61
2022/10/03 05:44:56;;;;;;;3.30;2.10;;;;;;;9.00;92.97;98908.81;435211;1274;141742;-62
2022/10/03 05:55:16;;;;;;;3.10;2.20;;;;;;;9.08;92.63;98917.84;446289;1273;144184;-61
2022/10/03 06:05:38;;;;;;;5.60;2.50;;;;;;;9.16;92.48;98924.31;445591;1275;142966;-61
2022/10/03 06:15:54;;;;;;;3.70;1.90;;;;;;;9.24;92.27;98921.14;445944;1275;142665;-61
2022/10/03 06:26:23;;;;;;;7.00;1.50;;;;;;;9.41;92.06;98924.48;446518;1273;143336;-61
2022/10/03 06:37:00;;;;;;;1.80;1.40;;;;;;;9.69;91.55;98918.85;446505;1275;142240;-62
2022/10/03 06:47:25;;;;;;;5.60;1.50;;;;;;;9.92;90.79;98928.77;437318;1275;142540;-62
2022/10/03 06:57:56;;;;;;;7.30;2.40;;;;;;;10.23;89.71;98926.73;446451;1274;198775;-62
2022/10/03 07:08:46;;;;;;;4.10;1.50;;;;;;;10.35;88.80;98941.45;446727;1274;142912;-63
2022/10/03 07:19:38;;;;;;;4.70;1.80;;;;;;;10.33;88.18;98946.66;446786;1274;143153;-62
2022/10/03 07:30:05;;;;;;;8.20;1.50;;;;;;;10.21;87.79;98945.80;445987;1274;142799;-62
2022/10/03 07:40:43;;;;;;;3.70;1.40;;;;;;;10.14;88.20;98940.69;446775;1274;143456;-61
2022/10/03 07:51:02;;;;;;;3.10;2.10;;;;;;;9.94;88.63;98945.75;432590;1275;143795;-61
2022/10/03 08:01:30;;;;;;;4.00;1.60;;;;;;;9.65;89.65;98955.71;446250;1275;151581;-62
2022/10/03 08:11:53;;;;;;;4.60;1.80;;;;;;;9.49;90.40;98966.23;445912;1275;144209;-62
2022/10/03 08:22:12;;;;;;;8.20;3.00;;;;;;;9.48;91.10;98970.48;446265;1275;142296;-62
2022/10/03 08:32:50;;;;;;;4.20;1.90;;;;;;;9.75;91.28;98969.31;446118;1274;143158;-62
2022/10/03 08:43:38;;;;;;;4.10;1.60;;;;;;;10.02;90.85;98967.10;446783;1273;142238;-61
2022/10/03 08:54:04;;;;;;;4.30;1.40;;;;;;;10.71;90.28;98974.59;445254;1273;265359;-62
2022/10/03 09:04:39;;;;;;;2.80;2.00;;;;;;;10.99;89.12;98984.21;447020;1272;142598;-62
2022/10/03 09:15:15;;;;;;;4.30;2.00;;;;;;;10.67;88.56;98997.23;446270;1273;143008;-63
2022/10/03 09:25:33;;;;;;;6.60;2.20;;;;;;;10.67;88.63;99012.13;446823;1274;143845;-62
2022/10/03 09:35:54;;;;;;;2.00;1.40;;;;;;;11.05;87.97;99015.84;446302;1273;142885;-62
2022/10/03 09:46:31;;;;;;;4.40;1.60;;;;;;;11.66;86.80;99025.58;442059;1273;141643;-60
2022/10/03 09:57:03;;;;;;;2.20;2.00;;;;;;;12.56;85.00;99024.65;440329;1272;144171;-62
2022/10/03 10:07:36;;;;;;;2.60;1.40;;;;;;;13.37;81.95;99027.86;443859;1273;142656;-62
2022/10/03 10:18:19;;;;;;;4.90;1.80;;;;;;;13.40;79.58;99035.69;446098;1273;143062;-62
2022/10/03 10:28:53;;;;;;;2.90;1.70;;;;;;;12.80;78.51;99040.48;446882;1273;142853;-62
2022/10/03 10:39:38;;;;;;;3.50;1.50;;;;;;;13.15;76.94;99052.50;446247;1272;142750;-62
2022/10/03 10:50:12;;;;;;;2.20;2.00;;;;;;;13.18;75.35;99057.37;435383;1273;142526;-62
2022/10/03 11:00:25;;;;;;;3.10;2.60;;;;;;;12.98;73.99;99064.70;447041;1272;146450;-62
2022/10/03 11:10:51;;;;;;;3.40;3.10;;;;;;;13.40;73.06;99068.38;447033;1273;142000;-61
2022/10/03 11:21:36;;;;;;;2.70;2.50;;;;;;;12.73;74.28;99092.27;446315;1271;144832;-62
2022/10/03 11:32:08;;;;;;;3.70;3.00;;;;;;;13.22;75.11;99097.30;447091;1273;142714;-62
2022/10/03 11:42:24;;;;;;;2.70;2.50;;;;;;;13.15;73.63;99088.20;447053;1272;142402;-61
2022/10/03 11:52:38;;;;;;;4.00;2.40;;;;;;;13.10;73.60;99095.11;438086;1275;142544;-62
2022/10/03 12:03:12;;;;;;;3.60;2.40;;;;;;;13.08;71.96;99097.29;446328;1273;141900;-62
2022/10/03 12:13:24;;;;;;;3.60;2.00;;;;;;;13.00;71.79;99126.52;447039;1272;143811;-63
2022/10/03 12:23:43;;;;;;;2.90;2.20;;;;;;;13.22;69.65;99130.16;446017;1274;142930;-62
2022/10/03 12:33:58;;;;;;;2.40;2.20;;;;;;;13.64;69.49;99135.86;447081;1273;142482;-62
2022/10/03 12:44:20;;;;;;;2.20;1.90;;;;;;;13.87;68.69;99146.27;439421;1272;142549;-61
2022/10/03 12:54:45;;;;;;;2.00;1.50;;;;;;;13.52;67.88;99154.27;429475;1273;143219;-62
2022/10/03 13:05:07;;;;;;;3.80;1.50;;;;;;;13.10;68.21;99175.94;447038;1271;145248;-62
2022/10/03 13:15:48;;;;;;;1.90;1.70;;;;;;;13.04;67.78;99184.31;447066;1273;143925;-61
2022/10/03 13:26:07;;;;;;;5.50;2.20;;;;;;;13.38;67.75;99180.95;447058;1273;194614;-61
2022/10/03 13:36:23;;;;;;;2.10;1.90;;;;;;;13.31;67.15;99187.28;447001;1271;144515;-62
2022/10/03 13:46:37;;;;;;;2.30;2.10;;;;;;;13.27;67.77;99191.98;444700;1273;142784;-63
2022/10/03 13:56:51;;;;;;;3.30;2.80;;;;;;;13.20;69.06;99198.38;435194;1275;143616;-62
2022/10/03 14:07:05;;;;;;;8.10;3.80;;;;;;;12.58;71.46;99229.58;444067;1273;142847;-59
2022/10/03 14:17:15;;;;;;;3.60;3.30;;;;;;;11.82;74.31;99247.41;446299;1273;143788;-62
2022/10/03 14:27:47;;;;;;;5.30;3.30;;;;;;;11.26;76.00;99243.98;447037;1273;142953;-62
2022/10/03 14:38:00;;;;;;;3.80;2.50;;;;;;;10.79;77.14;99268.62;447036;1273;143861;-61
2022/10/03 14:48:19;;;;;;;2.90;2.70;;;;;;;10.54;78.25;99275.41;444391;1273;142286;-62
2022/10/03 14:58:31;;;;;;;3.60;3.30;;;;;;;10.71;79.18;99279.83;446917;1273;142446;-61
2022/10/03 15:08:41;;;;;;;3.80;3.30;;;;;;;10.71;79.17;99280.23;446277;1273;186183;-61
2022/10/03 15:18:57;;;;;;;4.10;3.80;;;;;;;10.51;79.25;99287.33;447067;1273;142882;-63
2022/10/03 15:29:05;;;;;;;4.40;4.00;;;;;;;10.30;79.64;99292.73;447003;1273;142272;-62
2022/10/03 15:39:24;;;;;;;5.40;4.30;;;;;;;10.12;80.27;99297.64;447067;1273;142848;-61
2022/10/03 15:49:35;;;;;;;4.60;4.20;;;;;;;9.97;80.71;99301.09;442039;1273;142932;-62
2022/10/03 15:59:45;;;;;;;4.00;3.70;;;;;;;9.92;81.12;99307.11;429401;1273;142515;-63
2022/10/03 16:09:55;;;;;;;5.20;3.60;;;;;;;9.78;81.05;99319.79;430604;1276;141252;-62
2022/10/03 16:20:06;;;;;;;4.10;3.70;;;;;;;9.63;81.04;99331.23;430485;1274;141494;-62
2022/10/03 16:30:22;;;;;;;3.80;3.50;;;;;;;9.48;81.05;99337.23;430421;1273;152466;-62
2022/10/03 16:40:29;;;;;;;4.60;4.20;;;;;;;9.43;81.31;99336.35;430465;1273;145707;-61
2022/10/03 16:50:41;;;;;;;5.40;3.70;;;;;;;9.28;81.55;99342.98;430042;1273;143112;-61
2022/10/03 17:00:55;;;;;;;4.30;3.90;;;;;;;9.06;82.20;99350.46;429937;1273;142548;-63
2022/10/03 17:11:27;;;;;;;3.20;2.90;;;;;;;8.92;83.08;99356.76;430755;1273;142502;-61
2022/10/03 17:21:38;;;;;;;3.40;3.10;;;;;;;8.90;83.43;99356.85;434012;1273;143255;-61
2022/10/03 17:31:48;;;;;;;4.70;4.30;;;;;;;8.85;83.73;99360.30;444667;1273;142133;-63
2022/10/03 17:42:01;;;;;;;4.40;4.00;;;;;;;8.69;83.97;99367.20;446312;1272;143923;-62
2022/10/03 17:52:15;;;;;;;4.40;4.00;;;;;;;8.52;84.28;99369.21;447066;1273;142330;-62
2022/10/03 18:02:33;;;;;;;4.60;3.30;;;;;;;8.34;84.81;99373.91;446100;1274;184566;-62
2022/10/03 18:12:41;;;;;;;4.40;4.00;;;;;;;8.24;85.49;99377.77;447074;1273;142753;-62
2022/10/03 18:22:47;;;;;;;;;;;;;;;8.17;85.93;99377.46;441733;1273;141917;-61
2022/10/03 18:33:00;;;;;;;5.20;3.90;;;;;;;8.23;86.56;99380.27;446520;1273;129148;-62
2022/10/03 18:43:07;;;;;;;6.40;4.10;;;;;;;8.35;86.74;99378.88;447041;1273;142853;-62
2022/10/03 18:53:20;;;;;;;3.90;2.80;;;;;;;8.32;86.87;99385.00;446291;1273;142163;-63
2022/10/03 19:03:31;;;;;;;5.60;3.50;;;;;;;8.26;87.17;99389.86;447034;1273;144050;-63
2022/10/03 19:13:44;;;;;;;4.70;3.70;;;;;;;8.30;87.72;99393.80;443026;1275;141368;-64
2022/10/03 19:23:57;;;;;;;3.50;3.10;;;;;;;8.60;87.92;99397.91;446235;1273;145917;-64
2022/10/03 19:34:07;;;;;;;3.50;2.60;;;;;;;8.77;88.17;99387.67;446411;1274;143458;-61
2022/10/03 19:44:18;;;;;;;4.40;2.70;;;;;;;8.76;88.24;99390.16;435943;1273;143493;-62
2022/10/03 19:54:34;;;;;;;4.00;2.90;;;;;;;8.81;88.44;99392.15;430362;1273;143709;-63
2022/10/03 20:04:40;;;;;;;5.10;2.80;;;;;;;9.05;88.40;99396.77;431719;1273;142462;-64
2022/10/03 20:14:51;;;;;;;4.40;2.60;;;;;;;9.16;88.10;99393.34;430804;1274;143402;-61
2022/10/03 20:24:57;;;;;;;4.70;2.30;;;;;;;9.14;88.15;99392.12;446774;1273;144002;-62
2022/10/03 20:35:04;;;;;;;3.60;1.40;;;;;;;9.16;87.57;99386.54;433293;1274;142522;-63
2022/10/03 20:45:21;;;;;;;1.50;1.30;;;;;;;9.10;86.61;99383.77;430861;1272;142178;-63
2022/10/03 20:55:31;;;;;;;2.00;1.70;;;;;;;8.86;86.76;99384.32;431088;1273;184755;-61
2022/10/03 21:05:40;;;;;;;4.00;2.10;;;;;;;8.86;87.65;99384.69;429660;1273;142324;-63
2022/10/03 21:15:49;;;;;;;9.00;2.80;;;;;;;8.91;88.15;99391.40;431174;1272;185555;-58
2022/10/03 21:26:00;;;;;;;8.70;4.20;;;;;;;8.92;89.14;99389.89;430483;1273;142707;-61
2022/10/03 21:36:12;;;;;;;14.20;3.20;;;;;;;8.98;89.11;99392.86;429713;1273;142758;-61
2022/10/03 21:46:26;;;;;;;6.20;3.20;;;;;;;8.98;89.53;99391.31;429889;1273;142773;-62
2022/10/03 21:56:55;;;;;;;7.10;2.70;;;;;;;8.96;89.50;99390.35;429347;1273;141948;-62
2022/10/03 22:07:07;;;;;;;8.70;2.90;;;;;;;8.97;89.79;99390.65;430059;1274;142714;-61
2022/10/03 22:17:22;;;;;;;8.20;3.90;;;;;;;8.96;89.79;99386.20;430020;1273;142862;-62
2022/10/03 22:27:35;;;;;;;7.50;3.30;;;;;;;8.95;89.98;99380.98;430679;1273;141941;-62
2022/10/03 22:37:41;;;;;;;6.90;3.70;;;;;;;8.92;90.10;99375.45;430773;1275;142245;-63
2022/10/03 22:47:51;;;;;;;7.40;4.20;;;;;;;8.96;90.36;99371.32;430327;1273;141818;-63
2022/10/03 22:57:59;;;;;;;4.10;3.40;;;;;;;9.01;90.54;99365.98;432180;1273;142415;-61
2022/10/03 23:08:13;;;;;;;8.40;3.90;;;;;;;8.97;90.77;99363.27;430240;1273;144806;-61
2022/10/03 23:18:48;;;;;;;4.90;3.00;;;;;;;8.96;91.07;99361.70;430281;1275;143352;-63
2022/10/03 23:29:04;;;;;;;7.80;3.80;;;;;;;8.98;91.30;99361.61;430269;1273;142660;-60
2022/10/03 23:39:34;;;;;;;6.40;3.30;;;;;;;9.01;91.61;99361.06;430737;1273;141990;-63
2022/10/03 23:49:44;;;;;;;14.40;3.40;;;;;;;9.02;91.72;99366.80;430941;1273;141949;-63
2022/10/03 23:59:50;;;;;;;7.20;3.60;;;;;;;9.02;91.65;99373.23;430239;1273;142093;-62
